Time;durP1;ratioP1;P1;durP2;ratioP2;P2;SDS_P1;SDS_P2;PMS_P1;PMS_P2;Temp;Humidity;BMP_temperature;BMP_pressure;BME280_temperature;BME280_humidity;BME280_pressure;Samples;Min_cycle;Max_cycle;Signal;HPM_P1;HPM_P2
2021/07/21 00:02:15;;;;;;;;;;;;;;;17.83;100.00;98681.07;1661760;86;21094;-74
2021/07/21 00:04:50;;;;;;;;;;;;;;;17.84;100.00;98683.47;1661670;85;20188;-73
2021/07/21 00:07:15;;;;;;;;;;;;;;;17.84;100.00;98677.25;1660830;85;20480;-74
2021/07/21 00:09:42;;;;;;;;;;;;;;;17.82;100.00;98678.92;1659825;85;20121;-72
2021/07/21 00:14:53;;;;;;;;;;;;;;;17.80;100.00;98673.02;1661592;86;21150;-73
2021/07/21 00:17:32;;;;;;;;;;;;;;;17.79;100.00;98674.11;1661731;85;20210;-73
2021/07/21 00:20:11;;;;;;;;;;;;;;;17.78;100.00;98667.90;1660944;85;20136;-73
2021/07/21 00:22:39;;;;;;;;;;;;;;;17.78;100.00;98672.50;1661279;85;20149;-72
2021/07/21 00:25:08;;;;;;;;;;;;;;;17.77;100.00;98670.92;1661442;86;20149;-72
2021/07/21 00:27:35;;;;;;;;;;;;;;;17.76;100.00;98671.49;1661457;85;21801;-73
2021/07/21 00:30:04;;;;;;;;;;;;;;;17.74;100.00;98667.50;1661400;86;20134;-73
2021/07/21 00:32:30;;;;;;;;;;;;;;;17.73;100.00;98661.83;1661816;84;20185;-73
2021/07/21 00:34:56;;;;;;;;;;;;;;;17.71;100.00;98663.52;1661548;86;20628;-73
2021/07/21 00:37:23;;;;;;;;;;;;;;;17.70;100.00;98661.12;1638900;86;20297;-74
2021/07/21 00:39:49;;;;;;;;;;;;;;;17.69;100.00;98652.75;1661531;86;21075;-73
2021/07/21 00:42:22;;;;;;;;;;;;;;;17.67;100.00;98653.06;1661351;85;20150;-73
2021/07/21 00:44:48;;;;;;;;;;;;;;;17.68;100.00;98651.93;1674250;83;20127;-73
2021/07/21 00:47:20;;;;;;;;;;;;;;;17.67;100.00;98653.06;1695775;84;20204;-73
2021/07/21 00:49:47;;;;;;;;;;;;;;;17.67;100.00;98653.63;1695748;84;20147;-72
2021/07/21 00:52:16;;;;;;;;;;;;;;;17.67;100.00;98659.06;1695627;84;21111;-72
2021/07/21 00:54:48;;;;;;;;;;;;;;;17.66;100.00;98657.45;1695778;84;20450;-72
2021/07/21 00:57:15;;;;;;;;;;;;;;;17.67;100.00;98657.13;1674038;84;20180;-72
2021/07/21 00:59:41;;;;;;;;;;;;;;;17.68;100.00;98658.72;1695716;84;20163;-73
2021/07/21 01:02:16;;;;;;;;;;;;;;;17.67;100.00;98654.98;1695708;84;20170;-74
2021/07/21 01:04:37;;;;;;;;;;;;;;;17.70;100.00;98663.83;1695030;84;21105;-73
2021/07/21 01:07:07;;;;;;;;;;;;;;;17.68;100.00;98661.43;1695867;84;20204;-73
2021/07/21 01:09:38;;;;;;;;;;;;;;;17.69;100.00;98659.53;1695939;84;20112;-73
2021/07/21 01:12:13;;;;;;;;;;;;;;;17.68;100.00;98657.36;1695390;84;20124;-73
2021/07/21 01:14:54;;;;;;;;;;;;;;;17.69;100.00;98661.69;1695929;84;20135;-72
2021/07/21 01:17:28;;;;;;;;;;;;;;;17.70;100.00;98660.55;1695691;84;21095;-73
2021/07/21 01:20:27;;;;;;;;;;;;;;;17.70;100.00;98655.69;1696073;84;20647;-74
2021/07/21 01:23:10;;;;;;;;;;;;;;;17.70;100.00;98653.77;1695736;84;20148;-74
2021/07/21 01:25:56;;;;;;;;;;;;;;;17.69;100.00;98651.39;1695664;83;20490;-73
2021/07/21 01:28:27;;;;;;;;;;;;;;;17.66;100.00;98652.81;1692969;83;20151;-74
2021/07/21 01:31:20;;;;;;;;;;;;;;;17.65;100.00;98655.30;1695662;84;21160;-73
2021/07/21 01:33:47;;;;;;;;;;;;;;;17.65;100.00;98649.88;1694799;84;20132;-72
2021/07/21 01:36:23;;;;;;;;;;;;;;;17.64;100.00;98648.83;1696062;84;20155;-73
2021/07/21 01:38:53;;;;;;;;;;;;;;;17.61;100.00;98650.27;1673821;84;20148;-73
2021/07/21 01:41:23;;;;;;;;;;;;;;;17.58;100.00;98653.06;1695958;84;20135;-73
2021/07/21 01:43:53;;;;;;;;;;;;;;;17.56;100.00;98650.44;1695704;84;21174;-72
2021/07/21 01:46:23;;;;;;;;;;;;;;;17.53;100.00;98649.73;1665512;83;20504;-73
2021/07/21 01:48:50;;;;;;;;;;;;;;;17.51;100.00;98656.03;1661448;86;20129;-71
2021/07/21 01:51:17;;;;;;;;;;;;;;;17.52;100.00;98659.00;1661604;85;20224;-73
2021/07/21 01:53:45;;;;;;;;;;;;;;;17.52;100.00;98653.58;1661373;85;20154;-73
2021/07/21 01:56:14;;;;;;;;;;;;;;;17.51;100.00;98658.18;1661727;85;21124;-73
2021/07/21 01:58:43;;;;;;;;;;;;;;;17.51;100.00;98661.46;1661353;86;20150;-72
2021/07/21 02:01:11;;;;;;;;;;;;;;;17.51;100.00;98666.88;1658940;85;20133;-71
2021/07/21 02:03:41;;;;;;;;;;;;;;;17.51;100.00;98661.46;1661415;86;20126;-70
2021/07/21 02:06:10;;;;;;;;;;;;;;;17.50;100.00;98664.73;1661753;84;20146;-71
2021/07/21 02:08:39;;;;;;;;;;;;;;;17.49;100.00;98659.09;1661314;86;21077;-71
2021/07/21 02:11:09;;;;;;;;;;;;;;;17.50;100.00;98666.66;1660050;85;20495;-69
2021/07/21 02:13:38;;;;;;;;;;;;;;;17.48;100.00;98649.91;1661424;86;20504;-70
2021/07/21 02:16:16;;;;;;;;;;;;;;;17.47;100.00;98667.31;1659953;86;20365;-73
2021/07/21 02:18:42;;;;;;;;;;;;;;;17.46;100.00;98673.27;1661680;86;20169;-68
2021/07/21 02:21:10;;;;;;;;;;;;;;;17.45;100.00;98675.76;1661719;86;21103;-71
2021/07/21 02:23:37;;;;;;;;;;;;;;;17.43;100.00;98662.27;1661416;86;20530;-72
2021/07/21 02:26:22;;;;;;;;;;;;;;;17.41;100.00;98673.44;1661682;86;20170;-70
2021/07/21 02:28:50;;;;;;;;;;;;;;;17.39;100.00;98681.66;1661846;86;20126;-72
2021/07/21 02:31:26;;;;;;;;;;;;;;;17.36;100.00;98677.10;1661350;86;20212;-69
2021/07/21 02:33:56;;;;;;;;;;;;;;;17.36;100.00;98673.03;1639005;86;21868;-69
2021/07/21 02:36:24;;;;;;;;;;;;;;;17.38;100.00;98678.72;1661605;86;20185;-70
2021/07/21 02:38:56;;;;;;;;;;;;;;;17.36;100.00;98676.31;1661567;85;20153;-73
2021/07/21 02:41:22;;;;;;;;;;;;;;;17.40;100.00;98670.50;1661518;86;20133;-72
2021/07/21 02:43:51;;;;;;;;;;;;;;;17.41;100.00;98677.50;1661564;85;20110;-71
2021/07/21 02:46:18;;;;;;;;;;;;;;;17.44;100.00;98681.48;1686302;84;21931;-72
2021/07/21 02:48:47;;;;;;;;;;;;;;;17.45;100.00;98683.10;1695635;84;20119;-73
2021/07/21 02:51:27;;;;;;;;;;;;;;;17.46;100.00;98675.19;1695704;84;20140;-71
2021/07/21 02:53:58;;;;;;;;;;;;;;;17.44;100.00;98680.13;1695751;84;20151;-71
2021/07/21 02:56:30;;;;;;;;;;;;;;;17.45;100.00;98684.46;1694749;84;20144;-71
2021/07/21 02:59:10;;;;;;;;;;;;;;;17.44;100.00;98680.13;1695860;84;40158;-71
2021/07/21 03:01:37;;;;;;;;;;;;;;;17.42;100.00;98686.44;1695542;84;20203;-71
2021/07/21 03:04:11;;;;;;;;;;;;;;;17.40;100.00;98688.13;1696084;84;20131;-73
2021/07/21 03:06:38;;;;;;;;;;;;;;;17.39;100.00;98688.44;1695548;84;20179;-72
2021/07/21 03:09:07;;;;;;;;;;;;;;;17.36;100.00;98687.95;1695796;83;20196;-72
2021/07/21 03:11:43;;;;;;;;;;;;;;;17.39;100.00;98696.01;1692378;84;21144;-74
2021/07/21 03:14:10;;;;;;;;;;;;;;;17.38;100.00;98700.41;1695918;84;20123;-71
2021/07/21 03:16:45;;;;;;;;;;;;;;;17.34;100.00;98701.06;1695426;83;20127;-71
2021/07/21 03:19:10;;;;;;;;;;;;;;;17.35;100.00;98704.56;1695623;84;20123;-73
2021/07/21 03:21:39;;;;;;;;;;;;;;;17.34;100.00;98711.91;1695385;84;20119;-70
2021/07/21 03:24:08;;;;;;;;;;;;;;;17.35;100.00;98709.98;1695158;83;21190;-69
2021/07/21 03:26:51;;;;;;;;;;;;;;;17.35;100.00;98712.70;1695675;84;20200;-71
2021/07/21 03:29:20;;;;;;;;;;;;;;;17.32;100.00;98712.78;1695774;84;20176;-73
2021/07/21 03:31:48;;;;;;;;;;;;;;;17.32;100.00;98710.61;1695628;84;20152;-72
2021/07/21 03:34:14;;;;;;;;;;;;;;;17.31;100.00;98728.80;1695876;84;20152;-71
2021/07/21 03:36:47;;;;;;;;;;;;;;;17.31;100.00;98722.58;1694782;84;21160;-73
2021/07/21 03:39:32;;;;;;;;;;;;;;;17.32;100.00;98722.27;1695780;84;20167;-71
2021/07/21 03:42:07;;;;;;;;;;;;;;;17.30;100.00;98719.08;1674141;84;20136;-72
2021/07/21 03:44:35;;;;;;;;;;;;;;;17.32;100.00;98735.84;1695728;84;20136;-71
2021/07/21 03:47:02;;;;;;;;;;;;;;;17.31;100.00;98728.80;1665574;83;20134;-71
2021/07/21 03:49:29;;;;;;;;;;;;;;;17.32;100.00;98729.59;1616825;85;21142;-73
2021/07/21 03:51:59;;;;;;;;;;;;;;;17.27;100.00;98732.46;1660372;85;20558;-71
2021/07/21 03:54:31;;;;;;;;;;;;;;;17.25;100.00;98734.16;1647662;85;20153;-74
2021/07/21 03:57:04;;;;;;;;;;;;;;;17.15;100.00;98729.05;1661624;86;20161;-73
2021/07/21 03:59:36;;;;;;;;;;;;;;;17.07;100.00;98730.59;1661484;85;20170;-72
2021/07/21 04:02:07;;;;;;;;;;;;;;;17.02;100.00;98723.97;1661141;86;20540;-74
2021/07/21 04:04:34;;;;;;;;;;;;;;;16.95;100.00;98724.20;1661284;86;20149;-72
2021/07/21 04:07:04;;;;;;;;;;;;;;;16.89;100.00;98726.27;1638619;86;20189;-73
2021/07/21 04:09:35;;;;;;;;;;;;;;;16.86;100.00;98734.48;1659057;86;20277;-75
2021/07/21 04:12:04;;;;;;;;;;;;;;;16.81;100.00;98726.50;1661376;85;20137;-74
2021/07/21 04:14:50;;;;;;;;;;;;;;;16.79;100.00;98738.20;1661386;85;21170;-72
2021/07/21 04:17:31;;;;;;;;;;;;;;;16.77;100.00;98736.89;1607599;88;20442;-72
2021/07/21 04:20:00;;;;;;;;;;;;;;;16.78;100.00;98735.77;1607584;88;20453;-73
2021/07/21 04:22:32;;;;;;;;;;;;;;;16.81;100.00;98746.03;1607462;88;20550;-72
2021/07/21 04:25:00;;;;;;;;;;;;;;;16.84;100.00;98742.13;1607472;88;20197;-72
2021/07/21 04:27:30;;;;;;;;;;;;;;;16.88;100.00;98745.81;1562454;89;20111;-73
2021/07/21 04:30:14;;;;;;;;;;;;;;;16.96;100.00;98740.73;1606798;88;20167;-72
2021/07/21 04:32:43;;;;;;;;;;;;;;;17.03;100.00;98741.06;1605441;87;20187;-73
2021/07/21 04:35:16;;;;;;;;;;;;;;;17.07;100.00;98746.08;1604098;87;20537;-72
2021/07/21 04:37:44;;;;;;;;;;;;;;;17.11;100.00;98754.62;1603591;87;20509;-72
2021/07/21 04:40:14;;;;;;;;;;;;;;;17.14;100.00;98749.12;1602603;88;21844;-71
2021/07/21 04:42:45;;;;;;;;;;;;;;;17.15;100.00;98748.02;1604792;87;20155;-71
2021/07/21 04:45:13;;;;;;;;;;;;;;;17.14;100.00;98748.55;1581602;89;20168;-73
2021/07/21 04:47:41;;;;;;;;;;;;;;;17.13;100.00;98747.53;1609235;88;20426;-71
2021/07/21 04:50:10;;;;;;;;;;;;;;;17.12;100.00;98745.39;1607759;88;20185;-72
2021/07/21 04:52:38;;;;;;;;;;;;;;;17.13;100.00;98742.11;1615643;86;21988;-71
2021/07/21 04:55:07;;;;;;;;;;;;;;;17.12;100.00;98740.50;1661259;86;20129;-73
2021/07/21 04:57:33;;;;;;;;;;;;;;;17.13;100.00;98744.83;1661554;86;20178;-71
2021/07/21 05:00:06;;;;;;;;;;;;;;;17.10;100.00;98738.69;1661720;85;20737;-73
2021/07/21 05:02:49;;;;;;;;;;;;;;;17.11;100.00;98742.98;1660772;85;20372;-73
2021/07/21 05:05:16;;;;;;;;;;;;;;;17.11;100.00;98742.42;1661888;86;21811;-71
2021/07/21 05:07:53;;;;;;;;;;;;;;;17.09;100.00;98745.20;1660497;85;20160;-72
2021/07/21 05:10:22;;;;;;;;;;;;;;;17.06;100.00;98749.34;1637966;86;20125;-71
2021/07/21 05:12:51;;;;;;;;;;;;;;;17.06;100.00;98753.98;1638976;86;20162;-72
2021/07/21 05:15:21;;;;;;;;;;;;;;;17.07;100.00;98759.63;1661485;86;20487;-73
2021/07/21 05:17:50;;;;;;;;;;;;;;;17.07;100.00;98764.48;1661387;86;21554;-72
2021/07/21 05:20:21;;;;;;;;;;;;;;;17.09;100.00;98766.89;1660374;85;20456;-73
2021/07/21 05:22:49;;;;;;;;;;;;;;;17.10;100.00;98763.09;1658506;85;20146;-72
2021/07/21 05:25:18;;;;;;;;;;;;;;;17.14;100.00;98769.45;1661590;86;20212;-71
2021/07/21 05:28:13;;;;;;;;;;;;;;;17.18;100.00;98767.72;1659370;85;20153;-71
2021/07/21 05:30:43;;;;;;;;;;;;;;;17.25;100.00;98765.34;1660031;86;21749;-71
2021/07/21 05:33:11;;;;;;;;;;;;;;;17.32;100.00;98770.27;1660672;85;20499;-71
2021/07/21 05:35:41;;;;;;;;;;;;;;;17.43;100.00;98771.57;1660628;86;20172;-72
2021/07/21 05:38:10;;;;;;;;;;;;;;;17.54;100.00;98769.33;1660304;86;20212;-73
2021/07/21 05:40:38;;;;;;;;;;;;;;;17.67;100.00;98762.17;1637829;86;20570;-73
2021/07/21 05:43:06;;;;;;;;;;;;;;;17.83;100.00;98772.80;1660305;85;20824;-71
2021/07/21 05:45:34;;;;;;;;;;;;;;;17.98;100.00;98771.50;1661008;83;20137;-70
2021/07/21 05:48:03;;;;;;;;;;;;;;;18.12;100.00;98768.61;1695185;84;20199;-70
2021/07/21 05:50:32;;;;;;;;;;;;;;;18.26;100.00;98770.58;1672466;84;20474;-71
2021/07/21 05:52:59;;;;;;;;;;;;;;;18.43;100.00;98767.81;1694462;84;20735;-69
2021/07/21 05:55:28;;;;;;;;;;;;;;;18.53;100.00;98763.94;1682814;84;21158;-70
2021/07/21 05:57:54;;;;;;;;;;;;;;;18.63;100.00;98777.73;1661478;86;20216;-70
2021/07/21 06:00:22;;;;;;;;;;;;;;;18.62;100.00;98768.78;1661600;86;20156;-70
2021/07/21 06:02:51;;;;;;;;;;;;;;;18.73;100.00;98772.50;1639972;86;20200;-70
2021/07/21 06:05:19;;;;;;;;;;;;;;;18.90;100.00;98775.16;1641138;86;20437;-70
2021/07/21 06:07:49;;;;;;;;;;;;;;;19.04;100.00;98779.81;1661662;86;21159;-71
2021/07/21 06:10:34;;;;;;;;;;;;;;;19.11;100.00;98777.11;1661334;86;20105;-70
2021/07/21 06:13:03;;;;;;;;;;;;;;;19.21;100.00;98780.84;1661449;86;20208;-71
2021/07/21 06:15:30;;;;;;;;;;;;;;;19.26;100.00;98786.09;1661471;86;20449;-69
2021/07/21 06:18:00;;;;;;;;;;;;;;;19.30;100.00;98788.36;1661742;86;20551;-70
2021/07/21 06:20:28;;;;;;;;;;;;;;;19.49;100.00;98785.20;1660571;86;21560;-71
2021/07/21 06:22:55;;;;;;;;;;;;;;;19.55;100.00;98783.88;1660895;86;20183;-71
2021/07/21 06:26:18;;;;;;;;;;;;;;;;;;;;;
2021/07/21 06:29:36;;;;;;;;;;;;;;;19.82;100.00;98781.21;1551832;91;20182;-72
2021/07/21 06:32:22;;;;;;;;;;;;;;;19.91;100.00;98777.82;1571986;91;20182;-75
2021/07/21 06:35:11;;;;;;;;;;;;;;;19.97;100.00;98777.07;1575053;89;21176;-74
2021/07/21 06:37:40;;;;;;;;;;;;;;;20.30;100.00;98781.13;1575034;89;20255;-74
2021/07/21 06:40:08;;;;;;;;;;;;;;;20.67;100.00;98781.22;1557634;91;20202;-73
2021/07/21 06:42:34;;;;;;;;;;;;;;;20.88;100.00;98783.85;1577895;91;20498;-71
2021/07/21 06:45:09;;;;;;;;;;;;;;;20.88;100.00;98784.42;1578307;91;20163;-76
2021/07/21 06:47:46;;;;;;;;;;;;;;;20.75;100.00;98775.45;1560574;90;21117;-71
2021/07/21 06:50:27;;;;;;;;;;;;;;;20.66;100.00;98781.00;1556382;92;20226;-70
2021/07/21 06:52:57;;;;;;;;;;;;;;;20.60;100.00;98777.47;1552644;91;20570;-71
2021/07/21 06:55:36;;;;;;;;;;;;;;;20.63;100.00;98780.33;1552318;92;20231;-70
2021/07/21 06:58:20;;;;;;;;;;;;;;;20.85;100.00;98781.00;1551752;92;20481;-72
2021/07/21 07:00:44;;;;;;;;;;;;;;;20.85;100.00;98774.17;1621129;86;21175;-68
2021/07/21 07:03:12;;;;;;;;;;;;;;;21.00;100.00;98776.24;1638706;86;20481;-69
2021/07/21 07:06:00;;;;;;;;;;;;;;;21.20;100.00;98773.15;1581105;89;20105;-70
2021/07/21 07:08:46;;;;;;;;;;;;;;;21.48;100.00;98775.95;1580795;90;20608;-68
2021/07/21 07:11:32;;;;;;;;;;;;;;;21.72;100.00;98777.03;1578998;89;20751;-70
2021/07/21 07:13:59;;;;;;;;;;;;;;;21.58;100.00;98783.69;1580541;90;21292;-70
2021/07/21 07:16:25;;;;;;;;;;;;;;;21.72;100.00;98779.77;1579518;90;20199;-69
2021/07/21 07:18:54;;;;;;;;;;;;;;;21.78;100.00;98779.76;1580274;90;20156;-69
2021/07/21 07:21:22;;;;;;;;;;;;;;;21.77;100.00;98774.84;1580602;90;20210;-70
2021/07/21 07:23:50;;;;;;;;;;;;;;;21.73;100.00;98786.26;1579069;90;20236;-68
2021/07/21 07:26:17;;;;;;;;;;;;;;;21.49;100.00;98785.75;1579853;90;21178;-72
2021/07/21 07:28:43;;;;;;;;;;;;;;;21.51;100.00;98788.12;1579565;89;20217;-72
2021/07/21 07:31:11;;;;;;;;;;;;;;;21.50;100.00;98782.45;1579818;90;20165;-72
2021/07/21 07:33:38;;;;;;;;;;;;;;;21.52;100.00;98789.15;1579666;90;20196;-69
2021/07/21 07:36:06;;;;;;;;;;;;;;;21.60;100.00;98788.21;1582652;87;20193;-71
2021/07/21 07:38:33;;;;;;;;;;;;;;;21.54;100.00;98785.51;1639018;86;21162;-69
2021/07/21 07:41:00;;;;;;;;;;;;;;;21.45;100.00;98791.66;1637541;87;20160;-71
2021/07/21 07:43:28;;;;;;;;;;;;;;;21.39;100.00;98791.69;1639292;86;20109;-71
2021/07/21 07:45:57;;;;;;;;;;;;;;;21.43;100.00;98795.30;1638361;86;20237;-70
2021/07/21 07:48:26;;;;;;;;;;;;;;;21.58;100.00;98795.97;1633411;87;20533;-71
2021/07/21 07:50:53;;;;;;;;;;;;;;;21.64;100.00;98800.61;1632563;86;22172;-70
2021/07/21 07:53:20;;;;;;;;;;;;;;;21.84;100.00;98801.58;1632453;86;20220;-70
2021/07/21 07:55:47;;;;;;;;;;;;;;;21.95;100.00;98797.22;1632604;87;20166;-70
2021/07/21 07:58:14;;;;;;;;;;;;;;;21.84;100.00;98799.63;1632870;86;20104;-71
2021/07/21 08:00:45;;;;;;;;;;;;;;;21.77;100.00;98799.42;1624486;88;20448;-68
2021/07/21 08:03:12;;;;;;;;;;;;;;;21.62;100.00;98804.26;1632608;86;21974;-69
2021/07/21 08:05:42;;;;;;;;;;;;;;;21.74;100.00;98801.48;1632247;88;20203;-71
2021/07/21 08:08:09;;;;;;;;;;;;;;;21.72;100.00;98805.13;1632814;86;20132;-69
2021/07/21 08:10:36;;;;;;;;;;;;;;;21.76;100.00;98806.04;1633157;87;20144;-69
2021/07/21 08:13:03;;;;;;;;;;;;;;;21.88;100.00;98807.95;1633381;88;20533;-68
2021/07/21 08:15:30;;;;;;;;;;;;;;;22.06;100.00;98811.16;1633465;88;21140;-69
2021/07/21 08:17:59;;;;;;;;;;;;;;;22.16;100.00;98792.89;1632879;86;20155;-70
2021/07/21 08:20:26;;;;;;;;;;;;;;;22.17;100.00;98808.72;1633305;88;20202;-68
2021/07/21 08:22:55;;;;;;;;;;;;;;;22.35;100.00;98814.13;1633572;88;20451;-69
2021/07/21 08:25:24;;;;;;;;;;;;;;;22.67;100.00;98810.06;1632876;88;20112;-72
2021/07/21 08:27:54;;;;;;;;;;;;;;;22.66;100.00;98809.83;1633683;86;21064;-69
2021/07/21 08:30:23;;;;;;;;;;;;;;;22.93;100.00;98816.94;1632525;86;20131;-68
2021/07/21 08:33:01;;;;;;;;;;;;;;;23.15;100.00;98816.91;1633009;88;20183;-70
2021/07/21 08:35:24;;;;;;;;;;;;;;;23.05;100.00;98807.28;1603907;89;20149;-69
2021/07/21 08:37:51;;;;;;;;;;;;;;;22.77;100.00;98813.64;1632901;86;20165;-70
2021/07/21 08:40:18;;;;;;;;;;;;;;;22.67;100.00;98813.59;1633068;88;21164;-68
2021/07/21 08:42:57;;;;;;;;;;;;;;;22.69;100.00;98814.62;1632893;86;20139;-71
2021/07/21 08:45:27;;;;;;;;;;;;;;;22.74;100.00;98815.72;1632146;86;20240;-70
2021/07/21 08:47:54;;;;;;;;;;;;;;;22.94;100.00;98815.80;1633375;86;20183;-72
2021/07/21 08:50:21;;;;;;;;;;;;;;;23.06;100.00;98808.89;1633023;86;20224;-67
2021/07/21 08:52:48;;;;;;;;;;;;;;;22.89;100.00;98815.50;1636390;86;21178;-66
2021/07/21 08:55:15;;;;;;;;;;;;;;;22.67;100.00;98815.53;1611229;87;20177;-67
2021/07/21 08:57:41;;;;;;;;;;;;;;;22.38;100.00;98807.95;1632325;88;20188;-70
2021/07/21 09:00:14;;;;;;;;;;;;;;;22.40;100.00;98813.09;1633076;88;20198;-66
2021/07/21 09:02:42;;;;;;;;;;;;;;;22.42;100.00;98815.69;1632673;86;20451;-68
2021/07/21 09:05:10;;;;;;;;;;;;;;;22.41;100.00;98815.45;1632629;88;21039;-68
2021/07/21 09:07:40;;;;;;;;;;;;;;;22.36;100.00;98821.17;1632628;88;20115;-71
2021/07/21 09:10:11;;;;;;;;;;;;;;;22.33;100.00;98813.68;1633022;86;20196;-67
2021/07/21 09:12:43;;;;;;;;;;;;;;;22.33;100.00;98818.36;1632877;88;20454;-67
2021/07/21 09:15:13;;;;;;;;;;;;;;;22.44;100.00;98816.69;1632990;86;20112;-68
2021/07/21 09:18:09;;;;;;;;;;;;;;;22.44;100.00;98809.85;1633253;87;21887;-65
2021/07/21 09:20:41;;;;;;;;;;;;;;;22.60;100.00;98822.98;1633119;86;20436;-69
2021/07/21 09:23:08;;;;;;;;;;;;;;;22.73;100.00;98825.05;1633234;88;20112;-68
2021/07/21 09:25:36;;;;;;;;;;;;;;;22.86;100.00;98824.42;1633176;88;20146;-66
2021/07/21 09:28:05;;;;;;;;;;;;;;;22.97;100.00;98825.45;1633388;88;20440;-67
2021/07/21 09:30:38;;;;;;;;;;;;;;;23.08;100.00;98824.39;1633123;88;21176;-68
2021/07/21 09:33:07;;;;;;;;;;;;;;;23.12;100.00;98818.41;1633449;85;20480;-68
2021/07/21 09:39:02;;;;;;;;;;;;;;;23.43;100.00;98816.77;1726253;81;20120;-68
2021/07/21 09:41:30;;;;;;;;;;;;;;;23.37;100.00;98831.88;1696282;83;20435;-68
2021/07/21 09:44:02;;;;;;;;;;;;;;;23.43;100.00;98824.98;1726389;82;22326;-66
2021/07/21 09:46:29;;;;;;;;;;;;;;;23.60;100.00;98824.58;1726342;82;20163;-67
2021/07/21 09:48:56;;;;;;;;;;;;;;;23.75;100.00;98826.50;1726318;83;20452;-68
2021/07/21 09:51:34;;;;;;;;;;;;;;;23.65;99.65;98824.30;1726659;83;20112;-70
2021/07/21 09:54:14;;;;;;;;;;;;;;;23.77;99.54;98828.10;1725888;81;20440;-66
2021/07/21 09:56:48;;;;;;;;;;;;;;;23.82;96.00;98827.81;1722316;83;21171;-73
2021/07/21 09:59:20;;;;;;;;;;;;;;;23.64;88.29;98826.02;1725983;83;20100;-66
2021/07/21 10:01:48;;;;;;;;;;;;;;;23.69;92.85;98834.77;1726436;82;20104;-66
2021/07/21 10:04:36;;;;;;;;;;;;;;;23.80;93.20;98831.48;1694083;83;20075;-68
2021/07/21 10:07:19;;;;;;;;;;;;;;;23.83;88.66;98834.28;1693684;84;20152;-69
2021/07/21 10:09:33;;;;;;;;;;;;;;;23.85;92.49;98833.35;1660222;85;21972;-68
2021/07/21 10:11:59;;;;;;;;;;;;;;;24.03;91.91;98837.81;1694149;84;20091;-68
2021/07/21 10:14:26;;;;;;;;;;;;;;;24.16;86.72;98841.23;1653886;85;20121;-69
2021/07/21 10:16:54;;;;;;;;;;;;;;;24.29;81.98;98846.77;1653507;87;20204;-68
2021/07/21 10:19:28;;;;;;;;;;;;;;;24.30;83.42;98839.31;1653421;86;20169;-68
2021/07/21 10:22:00;;;;;;;;;;;;;;;24.26;80.63;98838.48;1653557;87;21142;-67
2021/07/21 10:24:32;;;;;;;;;;;;;;;24.21;82.95;98847.00;1653575;86;20488;-68
2021/07/21 10:26:59;;;;;;;;;;;;;;;24.18;79.39;98851.26;1653108;86;20213;-66
2021/07/21 10:29:26;;;;;;;;;;;;;;;24.28;84.47;98847.14;1653537;85;20443;-67
2021/07/21 10:31:53;;;;;;;;;;;;;;;24.26;74.34;98846.12;1634576;87;20145;-64
2021/07/21 10:34:20;;;;;;;;;;;;;;;24.21;74.31;98851.90;1652775;87;21108;-65
2021/07/21 10:36:47;;;;;;;;;;;;;;;24.13;74.15;98853.71;1654862;86;20169;-67
2021/07/21 10:39:25;;;;;;;;;;;;;;;23.90;72.35;98850.87;1665314;86;20101;-67
2021/07/21 10:41:51;;;;;;;;;;;;;;;24.04;75.49;98853.71;1665174;86;20153;-66
2021/07/21 10:44:19;;;;;;;;;;;;;;;24.27;80.00;98852.39;1615060;86;20136;-67
2021/07/21 10:46:53;;;;;;;;;;;;;;;24.33;73.62;98860.55;1668394;86;21183;-67
2021/07/21 10:49:31;;;;;;;;;;;;;;;24.49;70.34;98859.89;1668035;86;20164;-67
2021/07/21 10:55:07;;;;;;;;;;;;;;;24.79;66.67;98857.31;1665069;86;20090;-68
2021/07/21 11:00:32;;;;;;;;;;;;;;;25.07;63.41;98861.69;1611363;87;21071;-66
2021/07/21 11:03:18;;;;;;;;;;;;;;;25.16;61.10;98866.91;1635267;86;21389;-66
2021/07/21 11:05:50;;;;;;;;;;;;;;;25.29;63.14;98852.45;1623233;86;20121;-68
2021/07/21 11:08:20;;;;;;;;;;;;;;;25.15;63.44;98864.75;1598462;89;20608;-65
2021/07/21 11:10:52;;;;;;;;;;;;;;;24.92;60.58;98865.37;1595048;88;20254;-71
2021/07/21 11:13:33;;;;;;;;;;;;;;;24.64;61.75;98848.59;1595592;90;21235;-62
2021/07/21 11:16:01;;;;;;;;;;;;;;;24.62;65.50;98859.17;1595647;88;20477;-66
2021/07/21 11:18:41;;;;;;;;;;;;;;;24.59;62.71;98852.44;1595782;88;20189;-65
2021/07/21 11:21:16;;;;;;;;;;;;;;;24.68;68.75;98861.81;1575254;90;20556;-67
2021/07/21 11:23:58;;;;;;;;;;;;;;;24.89;66.48;98864.70;1595340;88;20517;-67
2021/07/21 11:26:30;;;;;;;;;;;;;;;25.01;66.48;98868.63;1595871;88;20132;-68
2021/07/21 11:28:59;;;;;;;;;;;;;;;24.99;64.06;98858.63;1596417;90;20221;-63
2021/07/21 11:31:52;;;;;;;;;;;;;;;25.11;65.67;98865.85;1627690;86;20164;-68
2021/07/21 11:34:38;;;;;;;;;;;;;;;25.23;63.49;98863.75;1662817;86;20109;-68
2021/07/21 11:37:08;;;;;;;;;;;;;;;25.29;65.81;98868.34;1664704;84;20171;-68
2021/07/21 11:39:42;;;;;;;;;;;;;;;25.34;65.54;98863.91;1673289;85;21005;-69
2021/07/21 11:42:27;;;;;;;;;;;;;;;25.42;61.77;98870.30;1673398;85;20191;-70
2021/07/21 11:45:13;;;;;;;;;;;;;;;25.48;63.67;98874.33;1696968;84;20130;-69
2021/07/21 11:47:56;;;;;;;;;;;;;;;25.48;63.44;98869.39;1691730;84;20473;-72
2021/07/21 11:50:25;;;;;;;;;;;;;;;25.49;61.15;98871.78;1691657;84;20185;-68
2021/07/21 11:53:00;;;;;;;;;;;;;;;25.49;60.67;98875.11;1693481;84;21035;-69
2021/07/21 11:55:32;;;;;;;;;;;;;;;25.44;61.11;98874.84;1690402;84;20185;-68
2021/07/21 11:58:01;;;;;;;;;;;;;;;25.39;60.47;98874.58;1694496;84;20174;-69
2021/07/21 12:00:28;;;;;;;;;;;;;;;25.35;59.36;98871.56;1693279;84;20170;-67
2021/07/21 12:03:01;;;;;;;;;;;;;;;25.23;61.18;98878.05;1693936;84;20087;-69
2021/07/21 12:05:31;;;;;;;;;;;;;;;25.18;60.78;98883.27;1693990;84;20237;-71
2021/07/21 12:08:08;;;;;;;;;;;;;;;25.18;60.48;98874.23;1693886;84;20220;-68
2021/07/21 12:10:36;;;;;;;;;;;;;;;25.29;61.70;98879.91;1691599;84;20174;-67
2021/07/21 12:13:11;;;;;;;;;;;;;;;25.24;60.75;98877.69;1694681;84;20473;-67
2021/07/21 12:15:39;;;;;;;;;;;;;;;25.36;63.53;98880.03;1694088;84;20198;-68
2021/07/21 12:18:16;;;;;;;;;;;;;;;25.36;62.15;98880.03;1692761;84;21145;-73
2021/07/21 12:21:17;;;;;;;;;;;;;;;25.26;59.01;98864.97;1694059;83;20464;-77
2021/07/21 12:23:51;;;;;;;;;;;;;;;25.26;61.36;98882.82;1684307;85;20441;-74
2021/07/21 12:26:21;;;;;;;;;;;;;;;25.40;58.96;98887.14;1684432;85;20380;-76
2021/07/21 12:28:58;;;;;;;;;;;;;;;25.38;60.88;98883.17;1686095;84;20249;-73
2021/07/21 12:31:30;;;;;;;;;;;;;;;25.35;60.95;98888.83;1696351;84;21758;-75
2021/07/21 12:34:16;;;;;;;;;;;;;;;25.43;59.67;98883.67;1674871;84;20153;-74
2021/07/21 12:36:48;;;;;;;;;;;;;;;25.40;60.19;98885.77;1673010;84;20197;-74
2021/07/21 12:39:16;;;;;;;;;;;;;;;25.32;61.61;98889.57;1687478;83;20203;-75
2021/07/21 12:41:47;;;;;;;;;;;;;;;25.29;61.66;98890.91;1658231;85;20112;-74
2021/07/21 12:44:17;;;;;;;;;;;;;;;25.26;63.80;98891.62;1687237;83;21087;-73
2021/07/21 12:46:45;;;;;;;;;;;;;;;25.35;65.15;98894.32;1686711;83;20154;-72
2021/07/21 12:49:30;;;;;;;;;;;;;;;25.37;60.85;98900.83;1686068;85;20713;-72
2021/07/21 12:51:57;;;;;;;;;;;;;;;25.07;60.11;98896.59;1686411;84;20657;-73
2021/07/21 12:54:25;;;;;;;;;;;;;;;24.98;59.46;98899.57;1687683;85;20450;-74
2021/07/21 12:56:55;;;;;;;;;;;;;;;24.97;61.27;98900.74;1686692;85;21206;-73
2021/07/21 12:59:22;;;;;;;;;;;;;;;25.05;60.19;98897.53;1685140;84;20539;-73
2021/07/21 13:01:49;;;;;;;;;;;;;;;25.20;62.56;98893.89;1675433;85;20517;-75
2021/07/21 13:04:21;;;;;;;;;;;;;;;25.45;61.56;98900.58;1684312;85;20427;-74
2021/07/21 13:07:14;;;;;;;;;;;;;;;25.46;61.76;98895.87;1676556;83;20428;-75
2021/07/21 13:09:43;;;;;;;;;;;;;;;25.63;62.12;98899.47;1675049;84;21058;-75
2021/07/21 13:12:41;;;;;;;;;;;;;;;25.72;62.25;98901.93;1623557;85;20136;-73
2021/07/21 13:15:37;;;;;;;;;;;;;;;25.72;58.85;98895.06;1690414;83;20229;-71
2021/07/21 13:18:10;;;;;;;;;;;;;;;25.66;62.06;98899.30;1697688;83;20183;-72